sensor_id;sensor_type;location;lat;lon;timestamp;temperature;humidity
23685;DHT22;12020;51.384;6.908;2022-10-04T00:01:22;11.80;99.90
23685;DHT22;12020;51.384;6.908;2022-10-04T00:04:06;11.80;99.90
23685;DHT22;12020;51.384;6.908;2022-10-04T00:06:53;11.90;99.90
23685;DHT22;12020;51.384;6.908;2022-10-04T00:09:23;11.90;99.90
23685;DHT22;12020;51.384;6.908;2022-10-04T00:11:53;11.90;99.90
23685;DHT22;12020;51.384;6.908;2022-10-04T00:14:30;12.00;99.90
23685;DHT22;12020;51.384;6.908;2022-10-04T00:16:58;12.00;99.90
23685;DHT22;12020;51.384;6.908;2022-10-04T00:19:37;11.90;99.90
23685;DHT22;12020;51.384;6.908;2022-10-04T00:24:33;11.90;99.90
23685;DHT22;12020;51.384;6.908;2022-10-04T00:33:03;11.90;99.90
23685;DHT22;12020;51.384;6.908;2022-10-04T00:38:12;11.90;99.90
23685;DHT22;12020;51.384;6.908;2022-10-04T00:40:40;11.90;99.90
23685;DHT22;12020;51.384;6.908;2022-10-04T00:43:35;11.90;99.90
23685;DHT22;12020;51.384;6.908;2022-10-04T00:46:08;11.80;99.90
23685;DHT22;12020;51.384;6.908;2022-10-04T00:48:51;11.80;99.90
23685;DHT22;12020;51.384;6.908;2022-10-04T00:51:40;11.80;99.90
23685;DHT22;12020;51.384;6.908;2022-10-04T00:54:28;11.80;99.90
23685;DHT22;12020;51.384;6.908;2022-10-04T00:56:58;11.80;99.90
23685;DHT22;12020;51.384;6.908;2022-10-04T00:59:32;11.80;99.90
23685;DHT22;12020;51.384;6.908;2022-10-04T01:02:34;11.80;99.90
23685;DHT22;12020;51.384;6.908;2022-10-04T01:05:07;11.70;99.90
23685;DHT22;12020;51.384;6.908;2022-10-04T01:07:38;11.70;99.90
23685;DHT22;12020;51.384;6.908;2022-10-04T01:10:21;11.70;99.90
23685;DHT22;12020;51.384;6.908;2022-10-04T01:18:28;11.60;99.90
23685;DHT22;12020;51.384;6.908;2022-10-04T01:21:07;11.60;99.90
23685;DHT22;12020;51.384;6.908;2022-10-04T01:23:51;11.60;99.90
23685;DHT22;12020;51.384;6.908;2022-10-04T01:29:13;11.60;99.90
23685;DHT22;12020;51.384;6.908;2022-10-04T01:31:42;11.60;99.90
23685;DHT22;12020;51.384;6.908;2022-10-04T01:34:17;11.50;99.90
23685;DHT22;12020;51.384;6.908;2022-10-04T01:36:46;11.60;99.90
23685;DHT22;12020;51.384;6.908;2022-10-04T01:39:14;11.60;99.90
23685;DHT22;12020;51.384;6.908;2022-10-04T01:44:18;11.60;99.90
23685;DHT22;12020;51.384;6.908;2022-10-04T01:46:48;11.60;99.90
23685;DHT22;12020;51.384;6.908;2022-10-04T01:49:19;11.60;99.90
23685;DHT22;12020;51.384;6.908;2022-10-04T01:52:03;11.60;99.90
23685;DHT22;12020;51.384;6.908;2022-10-04T01:54:33;11.60;99.90
23685;DHT22;12020;51.384;6.908;2022-10-04T01:57:14;11.60;99.90
23685;DHT22;12020;51.384;6.908;2022-10-04T02:00:02;11.60;99.90
23685;DHT22;12020;51.384;6.908;2022-10-04T02:02:39;11.60;99.90
23685;DHT22;12020;51.384;6.908;2022-10-04T02:05:09;11.60;99.90
23685;DHT22;12020;51.384;6.908;2022-10-04T02:07:38;11.50;99.90
23685;DHT22;12020;51.384;6.908;2022-10-04T02:10:09;11.50;99.90
23685;DHT22;12020;51.384;6.908;2022-10-04T02:12:44;11.50;99.90
23685;DHT22;12020;51.384;6.908;2022-10-04T02:15:20;11.50;99.90
23685;DHT22;12020;51.384;6.908;2022-10-04T02:17:47;11.50;99.90
23685;DHT22;12020;51.384;6.908;2022-10-04T02:20:17;11.60;99.90
23685;DHT22;12020;51.384;6.908;2022-10-04T02:22:49;11.60;99.90
23685;DHT22;12020;51.384;6.908;2022-10-04T02:25:18;11.60;99.90
23685;DHT22;12020;51.384;6.908;2022-10-04T02:28:10;11.60;99.90
23685;DHT22;12020;51.384;6.908;2022-10-04T02:30:51;11.60;99.90
23685;DHT22;12020;51.384;6.908;2022-10-04T02:33:44;11.60;99.90
23685;DHT22;12020;51.384;6.908;2022-10-04T02:36:12;11.60;99.90
23685;DHT22;12020;51.384;6.908;2022-10-04T02:38:53;11.60;99.90
23685;DHT22;12020;51.384;6.908;2022-10-04T02:47:06;11.60;99.90
23685;DHT22;12020;51.384;6.908;2022-10-04T02:49:48;11.60;99.90
23685;DHT22;12020;51.384;6.908;2022-10-04T02:52:35;11.70;99.90
23685;DHT22;12020;51.384;6.908;2022-10-04T02:55:23;11.70;99.90
23685;DHT22;12020;51.384;6.908;2022-10-04T02:58:00;11.70;99.90
23685;DHT22;12020;51.384;6.908;2022-10-04T03:00:45;11.70;99.90
23685;DHT22;12020;51.384;6.908;2022-10-04T03:03:33;11.80;99.90
23685;DHT22;12020;51.384;6.908;2022-10-04T03:06:14;11.80;99.90
23685;DHT22;12020;51.384;6.908;2022-10-04T03:09:00;11.80;99.90
23685;DHT22;12020;51.384;6.908;2022-10-04T03:11:30;11.80;99.90
23685;DHT22;12020;51.384;6.908;2022-10-04T03:14:02;11.80;99.90
23685;DHT22;12020;51.384;6.908;2022-10-04T03:16:35;11.80;99.90
23685;DHT22;12020;51.384;6.908;2022-10-04T03:19:02;11.70;99.90
23685;DHT22;12020;51.384;6.908;2022-10-04T03:21:30;11.70;99.90
23685;DHT22;12020;51.384;6.908;2022-10-04T03:23:58;11.70;99.90
23685;DHT22;12020;51.384;6.908;2022-10-04T03:26:38;11.70;99.90
23685;DHT22;12020;51.384;6.908;2022-10-04T03:29:08;11.70;99.90
23685;DHT22;12020;51.384;6.908;2022-10-04T03:31:50;11.70;99.90
23685;DHT22;12020;51.384;6.908;2022-10-04T03:34:32;11.70;99.90
23685;DHT22;12020;51.384;6.908;2022-10-04T03:37:21;11.70;99.90
23685;DHT22;12020;51.384;6.908;2022-10-04T03:39:50;11.70;99.90
23685;DHT22;12020;51.384;6.908;2022-10-04T03:44:49;11.70;99.90
23685;DHT22;12020;51.384;6.908;2022-10-04T03:47:44;11.80;99.90
23685;DHT22;12020;51.384;6.908;2022-10-04T03:50:25;11.80;99.90
23685;DHT22;12020;51.384;6.908;2022-10-04T03:55:52;11.70;99.90
23685;DHT22;12020;51.384;6.908;2022-10-04T03:58:22;11.70;99.90
23685;DHT22;12020;51.384;6.908;2022-10-04T04:01:08;11.70;99.90
23685;DHT22;12020;51.384;6.908;2022-10-04T04:04:16;11.70;99.90
23685;DHT22;12020;51.384;6.908;2022-10-04T04:07:01;11.70;99.90
23685;DHT22;12020;51.384;6.908;2022-10-04T04:09:44;11.70;99.90
23685;DHT22;12020;51.384;6.908;2022-10-04T04:12:22;11.70;99.90
23685;DHT22;12020;51.384;6.908;2022-10-04T04:14:50;11.70;99.90
23685;DHT22;12020;51.384;6.908;2022-10-04T04:19:53;11.70;99.90
23685;DHT22;12020;51.384;6.908;2022-10-04T04:22:22;11.70;99.90
23685;DHT22;12020;51.384;6.908;2022-10-04T04:24:48;11.60;99.90
23685;DHT22;12020;51.384;6.908;2022-10-04T04:27:16;11.70;99.90
23685;DHT22;12020;51.384;6.908;2022-10-04T04:29:50;11.60;99.90
23685;DHT22;12020;51.384;6.908;2022-10-04T04:32:20;11.60;99.90
23685;DHT22;12020;51.384;6.908;2022-10-04T04:34:56;11.60;99.90
23685;DHT22;12020;51.384;6.908;2022-10-04T04:37:23;11.60;99.90
23685;DHT22;12020;51.384;6.908;2022-10-04T04:39:52;11.60;99.90
23685;DHT22;12020;51.384;6.908;2022-10-04T04:42:32;11.50;99.90
23685;DHT22;12020;51.384;6.908;2022-10-04T04:45:04;11.50;99.90
23685;DHT22;12020;51.384;6.908;2022-10-04T04:47:41;11.50;99.90
23685;DHT22;12020;51.384;6.908;2022-10-04T04:50:29;11.50;99.90
23685;DHT22;12020;51.384;6.908;2022-10-04T04:55:38;11.50;99.90
23685;DHT22;12020;51.384;6.908;2022-10-04T04:58:07;11.40;99.90
23685;DHT22;12020;51.384;6.908;2022-10-04T05:00:36;11.40;99.90
23685;DHT22;12020;51.384;6.908;2022-10-04T05:03:06;11.40;99.90
23685;DHT22;12020;51.384;6.908;2022-10-04T05:05:34;11.40;99.90
23685;DHT22;12020;51.384;6.908;2022-10-04T05:08:14;11.40;99.90
23685;DHT22;12020;51.384;6.908;2022-10-04T05:13:16;11.30;99.90
23685;DHT22;12020;51.384;6.908;2022-10-04T05:15:42;11.30;99.90
23685;DHT22;12020;51.384;6.908;2022-10-04T05:18:31;11.30;99.90
23685;DHT22;12020;51.384;6.908;2022-10-04T05:21:12;11.30;99.90
23685;DHT22;12020;51.384;6.908;2022-10-04T05:23:41;11.30;99.90
23685;DHT22;12020;51.384;6.908;2022-10-04T05:26:12;11.30;99.90
23685;DHT22;12020;51.384;6.908;2022-10-04T05:28:39;11.30;99.90
23685;DHT22;12020;51.384;6.908;2022-10-04T05:33:55;11.30;99.90
23685;DHT22;12020;51.384;6.908;2022-10-04T05:39:16;11.30;99.90
23685;DHT22;12020;51.384;6.908;2022-10-04T05:44:28;11.30;99.90
23685;DHT22;12020;51.384;6.908;2022-10-04T05:46:58;11.20;99.90
23685;DHT22;12020;51.384;6.908;2022-10-04T05:49:28;11.20;99.90
23685;DHT22;12020;51.384;6.908;2022-10-04T05:51:58;11.20;99.90
23685;DHT22;12020;51.384;6.908;2022-10-04T05:54:29;11.20;99.90
23685;DHT22;12020;51.384;6.908;2022-10-04T06:00:20;11.10;99.90
23685;DHT22;12020;51.384;6.908;2022-10-04T06:05:55;11.20;99.90
23685;DHT22;12020;51.384;6.908;2022-10-04T06:11:36;11.20;99.90
23685;DHT22;12020;51.384;6.908;2022-10-04T06:25:39;11.50;99.90
23685;DHT22;12020;51.384;6.908;2022-10-04T06:54:00;11.50;99.90
23685;DHT22;12020;51.384;6.908;2022-10-04T07:01:56;11.50;99.90
23685;DHT22;12020;51.384;6.908;2022-10-04T07:04:43;11.50;99.90
23685;DHT22;12020;51.384;6.908;2022-10-04T07:13:21;11.60;99.90
23685;DHT22;12020;51.384;6.908;2022-10-04T07:16:42;11.70;99.90
23685;DHT22;12020;51.384;6.908;2022-10-04T07:18:47;11.70;99.90
23685;DHT22;12020;51.384;6.908;2022-10-04T07:21:15;11.80;99.90
23685;DHT22;12020;51.384;6.908;2022-10-04T07:23:50;11.90;99.90
23685;DHT22;12020;51.384;6.908;2022-10-04T07:29:25;12.00;99.90
23685;DHT22;12020;51.384;6.908;2022-10-04T07:32:04;12.10;99.90
23685;DHT22;12020;51.384;6.908;2022-10-04T07:34:45;12.20;99.90
23685;DHT22;12020;51.384;6.908;2022-10-04T07:37:15;12.30;99.90
23685;DHT22;12020;51.384;6.908;2022-10-04T07:40:05;12.30;99.90
23685;DHT22;12020;51.384;6.908;2022-10-04T07:45:34;12.40;99.90
23685;DHT22;12020;51.384;6.908;2022-10-04T07:48:13;12.50;99.90
23685;DHT22;12020;51.384;6.908;2022-10-04T07:51:23;12.60;99.90
23685;DHT22;12020;51.384;6.908;2022-10-04T08:05:53;12.80;99.90
23685;DHT22;12020;51.384;6.908;2022-10-04T08:21:47;12.90;99.90
23685;DHT22;12020;51.384;6.908;2022-10-04T08:24:34;12.90;99.90
23685;DHT22;12020;51.384;6.908;2022-10-04T10:15:49;18.00;99.90
23685;DHT22;12020;51.384;6.908;2022-10-04T10:19:02;18.20;99.90
23685;DHT22;12020;51.384;6.908;2022-10-04T10:37:03;19.00;99.90
23685;DHT22;12020;51.384;6.908;2022-10-04T10:40:02;19.10;99.90
23685;DHT22;12020;51.384;6.908;2022-10-04T10:45:41;19.20;99.90
23685;DHT22;12020;51.384;6.908;2022-10-04T10:48:48;19.30;99.90
23685;DHT22;12020;51.384;6.908;2022-10-04T11:07:18;19.30;99.90
23685;DHT22;12020;51.384;6.908;2022-10-04T11:28:03;19.30;99.90
23685;DHT22;12020;51.384;6.908;2022-10-04T11:36:28;19.20;99.90
23685;DHT22;12020;51.384;6.908;2022-10-04T12:00:22;19.30;99.90
23685;DHT22;12020;51.384;6.908;2022-10-04T12:09:09;19.40;99.90
23685;DHT22;12020;51.384;6.908;2022-10-04T12:12:09;19.40;99.90
23685;DHT22;12020;51.384;6.908;2022-10-04T12:21:40;19.50;99.90
23685;DHT22;12020;51.384;6.908;2022-10-04T12:24:50;19.40;99.90
23685;DHT22;12020;51.384;6.908;2022-10-04T12:33:55;19.40;99.90
23685;DHT22;12020;51.384;6.908;2022-10-04T12:39:36;19.30;99.90
23685;DHT22;12020;51.384;6.908;2022-10-04T12:48:12;19.20;99.90
23685;DHT22;12020;51.384;6.908;2022-10-04T12:57:08;18.80;99.90
23685;DHT22;12020;51.384;6.908;2022-10-04T13:03:19;18.70;99.90
23685;DHT22;12020;51.384;6.908;2022-10-04T13:09:10;18.70;99.90
23685;DHT22;12020;51.384;6.908;2022-10-04T13:14:43;18.80;99.90
23685;DHT22;12020;51.384;6.908;2022-10-04T13:25:43;18.70;99.90
23685;DHT22;12020;51.384;6.908;2022-10-04T13:31:21;18.70;99.90
23685;DHT22;12020;51.384;6.908;2022-10-04T13:34:51;18.70;99.90
23685;DHT22;12020;51.384;6.908;2022-10-04T13:57:17;18.70;99.90
23685;DHT22;12020;51.384;6.908;2022-10-04T14:17:18;18.60;99.90
23685;DHT22;12020;51.384;6.908;2022-10-04T14:23:18;18.70;99.90
23685;DHT22;12020;51.384;6.908;2022-10-04T14:38:18;18.70;99.90
23685;DHT22;12020;51.384;6.908;2022-10-04T14:55:50;18.70;99.90
23685;DHT22;12020;51.384;6.908;2022-10-04T14:58:37;18.70;99.90
23685;DHT22;12020;51.384;6.908;2022-10-04T15:01:25;18.60;99.90
23685;DHT22;12020;51.384;6.908;2022-10-04T15:06:54;18.60;99.90
23685;DHT22;12020;51.384;6.908;2022-10-04T15:21:05;18.50;99.90
23685;DHT22;12020;51.384;6.908;2022-10-04T15:23:42;18.50;99.90
23685;DHT22;12020;51.384;6.908;2022-10-04T15:32:31;18.50;99.90
23685;DHT22;12020;51.384;6.908;2022-10-04T15:41:23;18.40;99.90
23685;DHT22;12020;51.384;6.908;2022-10-04T15:43:27;18.40;99.90
23685;DHT22;12020;51.384;6.908;2022-10-04T16:06:57;18.10;99.90
23685;DHT22;12020;51.384;6.908;2022-10-04T16:12:26;18.00;99.90
23685;DHT22;12020;51.384;6.908;2022-10-04T16:15:18;18.00;99.90
23685;DHT22;12020;51.384;6.908;2022-10-04T16:21:53;17.90;99.90
23685;DHT22;12020;51.384;6.908;2022-10-04T16:32:17;17.40;99.90
23685;DHT22;12020;51.384;6.908;2022-10-04T16:35:14;17.30;99.90
23685;DHT22;12020;51.384;6.908;2022-10-04T16:40:46;17.10;99.90
23685;DHT22;12020;51.384;6.908;2022-10-04T16:43:26;17.00;99.90
23685;DHT22;12020;51.384;6.908;2022-10-04T16:46:05;16.80;99.90
23685;DHT22;12020;51.384;6.908;2022-10-04T16:49:03;16.80;99.90
23685;DHT22;12020;51.384;6.908;2022-10-04T17:04:12;16.30;99.90
23685;DHT22;12020;51.384;6.908;2022-10-04T17:21:11;16.10;99.90
23685;DHT22;12020;51.384;6.908;2022-10-04T17:23:51;16.00;99.90
23685;DHT22;12020;51.384;6.908;2022-10-04T17:26:31;15.90;99.90
23685;DHT22;12020;51.384;6.908;2022-10-04T17:33:17;15.70;99.90
23685;DHT22;12020;51.384;6.908;2022-10-04T17:44:18;15.30;99.90
23685;DHT22;12020;51.384;6.908;2022-10-04T17:49:48;15.10;99.90
23685;DHT22;12020;51.384;6.908;2022-10-04T17:53:01;15.10;99.90
23685;DHT22;12020;51.384;6.908;2022-10-04T17:55:56;15.00;99.90
23685;DHT22;12020;51.384;6.908;2022-10-04T17:58:36;15.00;99.90
23685;DHT22;12020;51.384;6.908;2022-10-04T18:01:27;15.00;99.90
23685;DHT22;12020;51.384;6.908;2022-10-04T18:09:50;14.80;99.90
23685;DHT22;12020;51.384;6.908;2022-10-04T18:12:35;14.80;99.90
23685;DHT22;12020;51.384;6.908;2022-10-04T18:15:31;14.70;99.90
23685;DHT22;12020;51.384;6.908;2022-10-04T18:18:26;14.60;99.90
23685;DHT22;12020;51.384;6.908;2022-10-04T18:21:17;14.60;99.90
23685;DHT22;12020;51.384;6.908;2022-10-04T18:30:10;14.50;99.90
23685;DHT22;12020;51.384;6.908;2022-10-04T18:33:00;14.40;99.90
23685;DHT22;12020;51.384;6.908;2022-10-04T18:35:32;14.30;99.90
23685;DHT22;12020;51.384;6.908;2022-10-04T18:40:40;14.30;99.90
23685;DHT22;12020;51.384;6.908;2022-10-04T18:43:30;14.20;99.90
23685;DHT22;12020;51.384;6.908;2022-10-04T18:46:20;14.10;99.90
23685;DHT22;12020;51.384;6.908;2022-10-04T18:49:10;14.00;99.90
23685;DHT22;12020;51.384;6.908;2022-10-04T19:00:12;13.90;99.90
23685;DHT22;12020;51.384;6.908;2022-10-04T19:06:24;13.90;99.90
23685;DHT22;12020;51.384;6.908;2022-10-04T19:09:25;13.90;99.90
23685;DHT22;12020;51.384;6.908;2022-10-04T19:12:14;13.90;99.90
23685;DHT22;12020;51.384;6.908;2022-10-04T19:20:53;13.90;99.90
23685;DHT22;12020;51.384;6.908;2022-10-04T19:26:45;13.90;99.90
23685;DHT22;12020;51.384;6.908;2022-10-04T19:32:18;13.90;99.90
23685;DHT22;12020;51.384;6.908;2022-10-04T19:37:34;13.80;99.90
23685;DHT22;12020;51.384;6.908;2022-10-04T19:40:16;13.80;99.90
23685;DHT22;12020;51.384;6.908;2022-10-04T19:48:18;13.80;99.90
23685;DHT22;12020;51.384;6.908;2022-10-04T19:51:00;13.70;99.90
23685;DHT22;12020;51.384;6.908;2022-10-04T19:53:33;13.70;99.90
23685;DHT22;12020;51.384;6.908;2022-10-04T19:56:03;13.70;99.90
23685;DHT22;12020;51.384;6.908;2022-10-04T20:01:04;13.60;99.90
23685;DHT22;12020;51.384;6.908;2022-10-04T20:03:33;13.60;99.90
23685;DHT22;12020;51.384;6.908;2022-10-04T20:05:59;13.50;99.90
23685;DHT22;12020;51.384;6.908;2022-10-04T20:11:18;13.50;99.90
23685;DHT22;12020;51.384;6.908;2022-10-04T20:14:41;13.40;99.90
23685;DHT22;12020;51.384;6.908;2022-10-04T20:24:49;13.40;99.90
23685;DHT22;12020;51.384;6.908;2022-10-04T20:28:35;13.40;99.90
23685;DHT22;12020;51.384;6.908;2022-10-04T20:30:25;13.30;99.90
23685;DHT22;12020;51.384;6.908;2022-10-04T20:32:55;13.30;99.90
23685;DHT22;12020;51.384;6.908;2022-10-04T20:44:43;13.20;99.90
23685;DHT22;12020;51.384;6.908;2022-10-04T20:47:41;13.20;99.90
23685;DHT22;12020;51.384;6.908;2022-10-04T20:50:28;13.20;99.90
23685;DHT22;12020;51.384;6.908;2022-10-04T20:52:59;13.10;99.90
23685;DHT22;12020;51.384;6.908;2022-10-04T20:55:34;13.10;99.90
23685;DHT22;12020;51.384;6.908;2022-10-04T21:00:55;13.10;99.90
23685;DHT22;12020;51.384;6.908;2022-10-04T21:03:25;13.10;99.90
23685;DHT22;12020;51.384;6.908;2022-10-04T21:06:19;13.10;99.90
23685;DHT22;12020;51.384;6.908;2022-10-04T21:08:46;13.10;99.90
23685;DHT22;12020;51.384;6.908;2022-10-04T21:11:19;13.20;99.90
23685;DHT22;12020;51.384;6.908;2022-10-04T21:13:51;13.20;99.90
23685;DHT22;12020;51.384;6.908;2022-10-04T21:16:45;13.20;99.90
23685;DHT22;12020;51.384;6.908;2022-10-04T21:19:41;13.30;99.90
23685;DHT22;12020;51.384;6.908;2022-10-04T21:25:30;13.30;99.90
23685;DHT22;12020;51.384;6.908;2022-10-04T21:28:22;13.40;99.90
23685;DHT22;12020;51.384;6.908;2022-10-04T21:30:59;13.40;99.90
23685;DHT22;12020;51.384;6.908;2022-10-04T21:33:26;13.50;99.90
23685;DHT22;12020;51.384;6.908;2022-10-04T21:35:53;13.50;99.90
23685;DHT22;12020;51.384;6.908;2022-10-04T21:38:27;13.40;99.90
23685;DHT22;12020;51.384;6.908;2022-10-04T21:40:59;13.40;99.90
23685;DHT22;12020;51.384;6.908;2022-10-04T21:43:25;13.40;99.90
23685;DHT22;12020;51.384;6.908;2022-10-04T21:45:51;13.40;99.90
23685;DHT22;12020;51.384;6.908;2022-10-04T21:48:17;13.40;99.90
23685;DHT22;12020;51.384;6.908;2022-10-04T21:50:49;13.40;99.90
23685;DHT22;12020;51.384;6.908;2022-10-04T21:53:20;13.40;99.90
23685;DHT22;12020;51.384;6.908;2022-10-04T21:55:46;13.40;99.90
23685;DHT22;12020;51.384;6.908;2022-10-04T21:58:19;13.40;99.90
23685;DHT22;12020;51.384;6.908;2022-10-04T22:00:47;13.40;99.90
23685;DHT22;12020;51.384;6.908;2022-10-04T22:03:14;13.40;99.90
23685;DHT22;12020;51.384;6.908;2022-10-04T22:05:42;13.40;99.90
23685;DHT22;12020;51.384;6.908;2022-10-04T22:08:08;13.40;99.90
23685;DHT22;12020;51.384;6.908;2022-10-04T22:10:34;13.50;99.90
23685;DHT22;12020;51.384;6.908;2022-10-04T22:13:00;13.50;99.90
23685;DHT22;12020;51.384;6.908;2022-10-04T22:15:28;13.50;99.90
23685;DHT22;12020;51.384;6.908;2022-10-04T22:18:00;13.50;99.90
23685;DHT22;12020;51.384;6.908;2022-10-04T22:20:26;13.50;99.90
23685;DHT22;12020;51.384;6.908;2022-10-04T22:22:53;13.50;99.90
23685;DHT22;12020;51.384;6.908;2022-10-04T22:25:24;13.40;99.90
23685;DHT22;12020;51.384;6.908;2022-10-04T22:27:50;13.40;99.90
23685;DHT22;12020;51.384;6.908;2022-10-04T22:30:28;13.40;99.90
23685;DHT22;12020;51.384;6.908;2022-10-04T22:33:31;13.40;99.90
23685;DHT22;12020;51.384;6.908;2022-10-04T22:39:21;13.40;99.90
23685;DHT22;12020;51.384;6.908;2022-10-04T22:41:55;13.40;99.90
23685;DHT22;12020;51.384;6.908;2022-10-04T22:44:39;13.40;99.90
23685;DHT22;12020;51.384;6.908;2022-10-04T22:47:11;13.40;99.90
23685;DHT22;12020;51.384;6.908;2022-10-04T22:49:40;13.40;99.90
23685;DHT22;12020;51.384;6.908;2022-10-04T22:52:17;13.40;99.90
23685;DHT22;12020;51.384;6.908;2022-10-04T22:54:48;13.40;99.90
23685;DHT22;12020;51.384;6.908;2022-10-04T22:57:15;13.40;99.90
23685;DHT22;12020;51.384;6.908;2022-10-04T22:59:45;13.40;99.90
23685;DHT22;12020;51.384;6.908;2022-10-04T23:02:26;13.40;99.90
23685;DHT22;12020;51.384;6.908;2022-10-04T23:05:16;13.40;99.90
23685;DHT22;12020;51.384;6.908;2022-10-04T23:07:43;13.40;99.90
23685;DHT22;12020;51.384;6.908;2022-10-04T23:10:11;13.40;99.90
23685;DHT22;12020;51.384;6.908;2022-10-04T23:12:38;13.40;99.90
23685;DHT22;12020;51.384;6.908;2022-10-04T23:15:05;13.40;99.90
23685;DHT22;12020;51.384;6.908;2022-10-04T23:17:37;13.40;99.90
23685;DHT22;12020;51.384;6.908;2022-10-04T23:20:11;13.40;99.90
23685;DHT22;12020;51.384;6.908;2022-10-04T23:22:38;13.40;99.90
23685;DHT22;12020;51.384;6.908;2022-10-04T23:27:50;13.40;99.90
23685;DHT22;12020;51.384;6.908;2022-10-04T23:30:19;13.40;99.90
23685;DHT22;12020;51.384;6.908;2022-10-04T23:32:55;13.40;99.90
23685;DHT22;12020;51.384;6.908;2022-10-04T23:35:32;13.40;99.90
23685;DHT22;12020;51.384;6.908;2022-10-04T23:38:00;13.50;99.90
23685;DHT22;12020;51.384;6.908;2022-10-04T23:40:53;13.40;99.90
23685;DHT22;12020;51.384;6.908;2022-10-04T23:43:22;13.40;99.90
23685;DHT22;12020;51.384;6.908;2022-10-04T23:45:56;13.40;99.90
23685;DHT22;12020;51.384;6.908;2022-10-04T23:48:28;13.40;99.90
23685;DHT22;12020;51.384;6.908;2022-10-04T23:50:57;13.30;99.90
23685;DHT22;12020;51.384;6.908;2022-10-04T23:53:29;13.30;99.90
23685;DHT22;12020;51.384;6.908;2022-10-04T23:55:58;13.30;99.90
23685;DHT22;12020;51.384;6.908;2022-10-04T23:58:33;13.30;99.90
